OH44 weather

Head Field
Galena, Ohio, United States

Public forecast

Using degrees Fahrenheit for public forecast. Weather courtesy of forecast.io.

Closest aviation weather report (METAR) to Head Field

Closest report is Delaware Municipal Airport, 8.5 nm (15.7 km) WNW. Retrieved 2020/05/26 08:59 UTC (12 minutes ago):

KDLZ 260859Z AUTO 00000KT 1 3/4SM BR VV007 18/18 A3008 RMK AO2

Closest aviation forecast (TAF) to Head Field

Closest forecast is John Glenn Columbus International Airport, 13.6 nm (25.2 km) S. Retrieved 2020/05/26 06:51 UTC (2 hours ago):

TAF KCMH 260548Z 2606/2706 14003KT P6SM SCT250 FM261700 14007KT P6SM BKN040